createdAt,value
2018-05-29T00:20:48.096Z,100312.19
2018-05-29T00:40:30.438Z,100320.56
2018-05-29T01:00:14.504Z,100311.94
2018-05-29T01:19:58.262Z,100311.90
2018-05-29T01:39:41.623Z,100288.77
2018-05-29T01:59:24.444Z,100273.91
2018-05-29T02:19:07.479Z,100277.61
2018-05-29T02:38:50.929Z,100272.11
2018-05-29T02:58:33.042Z,100255.88
2018-05-29T03:18:15.271Z,100255.28
2018-05-29T03:37:58.991Z,100253.81
2018-05-29T03:57:42.787Z,100253.03
2018-05-29T04:17:25.521Z,100237.55
2018-05-29T04:37:07.429Z,100224.95
2018-05-29T04:56:51.187Z,100216.16
2018-05-29T05:16:34.424Z,100217.26
2018-05-29T05:36:17.280Z,100210.05
2018-05-29T05:56:00.115Z,100215.06
2018-05-29T06:15:43.157Z,100201.60
2018-05-29T06:35:26.301Z,100184.58
2018-05-29T06:55:08.219Z,100178.52
2018-05-29T07:14:52.384Z,100172.56
2018-05-29T07:34:35.130Z,100167.16
2018-05-29T07:54:18.574Z,100156.61
2018-05-29T08:14:00.905Z,100147.28
2018-05-29T08:33:43.844Z,100132.29
2018-05-29T08:53:27.205Z,100113.31
2018-05-29T09:13:10.246Z,100094.31
2018-05-29T09:32:53.080Z,100095.88
2018-05-29T09:52:36.644Z,100072.97
2018-05-29T10:12:19.068Z,100057.58
2018-05-29T10:32:02.109Z,100049.45
2018-05-29T10:51:45.242Z,100016.11
2018-05-29T11:11:27.596Z,100007.41
2018-05-29T11:31:10.689Z,99976.51
2018-05-29T11:50:53.653Z,99974.98
2018-05-29T12:10:37.135Z,99965.97
2018-05-29T12:30:19.981Z,99933.30
2018-05-29T12:50:02.803Z,99912.67
2018-05-29T13:09:46.585Z,99891.83
2018-05-29T13:29:29.564Z,99864.09
2018-05-29T13:49:12.337Z,99858.36
2018-05-29T14:08:54.620Z,99827.98
2018-05-29T14:28:39.203Z,99812.77
2018-05-29T14:33:59.635Z,99805.64
2018-05-29T14:36:27.561Z,99805.48
2018-05-29T14:59:03.328Z,99773.67
2018-05-29T15:18:44.568Z,99773.59
2018-05-29T15:38:27.813Z,99815.27
2018-05-29T15:58:11.141Z,99869.92
2018-05-29T16:17:53.955Z,99910.54
2018-05-29T16:34:53.934Z,99880.84
2018-05-29T16:54:44.393Z,99920.72
2018-05-29T17:14:28.192Z,99890.61
2018-05-29T17:34:11.152Z,99844.20
2018-05-29T17:53:54.170Z,99815.48
2018-05-29T18:13:36.975Z,99804.53
2018-05-29T18:33:19.852Z,99846.83
2018-05-29T18:53:05.039Z,99865.27
2018-05-29T19:12:48.245Z,99893.43
2018-05-29T19:32:32.393Z,99923.52
2018-05-29T19:52:14.515Z,99946.19
2018-05-29T20:11:57.698Z,99916.66
2018-05-29T20:31:40.661Z,99916.75
2018-05-29T20:51:23.512Z,99920.29
2018-05-29T21:11:06.118Z,99925.12
2018-05-29T21:30:48.943Z,99920.64
2018-05-29T21:50:32.125Z,99898.28
2018-05-29T22:10:13.899Z,99901.48
2018-05-29T22:29:56.743Z,99882.15
2018-05-29T22:49:40.173Z,99897.30
2018-05-29T23:09:23.075Z,99900.56
2018-05-29T23:29:05.371Z,99888.14
2018-05-29T23:48:48.298Z,99878.87
